sensor_id;sensor_type;location;lat;lon;timestamp;pressure;altitude;pressure_sealevel;temperature;humidity
36254;BME280;22291;52.250;21.228;2023-04-06T00:02:23;100876.42;;;0.80;59.13
36254;BME280;22291;52.250;21.228;2023-04-06T00:04:50;100872.92;;;0.80;59.21
36254;BME280;22291;52.250;21.228;2023-04-06T00:07:16;100871.77;;;0.76;59.23
36254;BME280;22291;52.250;21.228;2023-04-06T00:09:43;100866.22;;;0.77;59.27
36254;BME280;22291;52.250;21.228;2023-04-06T00:12:10;100866.72;;;0.77;59.20
36254;BME280;22291;52.250;21.228;2023-04-06T00:14:36;100864.58;;;0.76;59.22
36254;BME280;22291;52.250;21.228;2023-04-06T00:17:03;100872.65;;;0.79;59.25
36254;BME280;22291;52.250;21.228;2023-04-06T00:19:29;100869.69;;;0.78;59.18
36254;BME280;22291;52.250;21.228;2023-04-06T00:21:55;100861.92;;;0.76;59.20
36254;BME280;22291;52.250;21.228;2023-04-06T00:24:22;100864.05;;;0.77;59.21
36254;BME280;22291;52.250;21.228;2023-04-06T00:26:48;100867.33;;;0.79;59.22
36254;BME280;22291;52.250;21.228;2023-04-06T00:29:14;100863.60;;;0.80;59.14
36254;BME280;22291;52.250;21.228;2023-04-06T00:31:41;100852.67;;;0.79;59.18
36254;BME280;22291;52.250;21.228;2023-04-06T00:34:07;100850.52;;;0.78;59.19
36254;BME280;22291;52.250;21.228;2023-04-06T00:36:33;100848.16;;;0.79;59.25
36254;BME280;22291;52.250;21.228;2023-04-06T00:39:00;100845.72;;;0.78;59.29
36254;BME280;22291;52.250;21.228;2023-04-06T00:41:26;100840.69;;;0.79;59.26
36254;BME280;22291;52.250;21.228;2023-04-06T00:43:53;100840.69;;;0.79;59.27
36254;BME280;22291;52.250;21.228;2023-04-06T00:46:22;100841.72;;;0.78;59.29
36254;BME280;22291;52.250;21.228;2023-04-06T00:48:49;100841.72;;;0.78;59.28
36254;BME280;22291;52.250;21.228;2023-04-06T00:51:15;100841.19;;;0.78;59.32
36254;BME280;22291;52.250;21.228;2023-04-06T00:53:41;100836.17;;;0.79;59.28
36254;BME280;22291;52.250;21.228;2023-04-06T00:56:08;100831.59;;;0.77;59.36
36254;BME280;22291;52.250;21.228;2023-04-06T00:58:36;100833.43;;;0.77;59.52
36254;BME280;22291;52.250;21.228;2023-04-06T01:01:06;100835.06;;;0.78;59.67
36254;BME280;22291;52.250;21.228;2023-04-06T01:03:32;100828.70;;;0.79;59.73
36254;BME280;22291;52.250;21.228;2023-04-06T01:05:59;100830.84;;;0.79;59.70
36254;BME280;22291;52.250;21.228;2023-04-06T01:08:25;100831.88;;;0.78;59.77
36254;BME280;22291;52.250;21.228;2023-04-06T01:10:53;100827.37;;;0.79;59.95
36254;BME280;22291;52.250;21.228;2023-04-06T01:13:19;100824.11;;;0.77;59.97
36254;BME280;22291;52.250;21.228;2023-04-06T01:15:46;100826.27;;;0.77;60.02
36254;BME280;22291;52.250;21.228;2023-04-06T01:18:15;100820.88;;;0.74;60.03
36254;BME280;22291;52.250;21.228;2023-04-06T01:20:41;100823.27;;;0.73;60.01
36254;BME280;22291;52.250;21.228;2023-04-06T01:23:07;100819.84;;;0.76;60.00
36254;BME280;22291;52.250;21.228;2023-04-06T01:25:34;100819.04;;;0.75;60.01
36254;BME280;22291;52.250;21.228;2023-04-06T01:28:01;100811.78;;;0.73;60.16
36254;BME280;22291;52.250;21.228;2023-04-06T01:30:27;100820.07;;;0.74;60.10
36254;BME280;22291;52.250;21.228;2023-04-06T01:32:53;100820.59;;;0.73;60.12
36254;BME280;22291;52.250;21.228;2023-04-06T01:35:20;100810.98;;;0.72;60.23
36254;BME280;22291;52.250;21.228;2023-04-06T01:37:47;100804.02;;;0.71;60.16
36254;BME280;22291;52.250;21.228;2023-04-06T01:40:14;100801.08;;;0.70;60.17
36254;BME280;22291;52.250;21.228;2023-04-06T01:42:41;100807.21;;;0.71;60.28
36254;BME280;22291;52.250;21.228;2023-04-06T01:45:09;100804.27;;;0.70;60.30
36254;BME280;22291;52.250;21.228;2023-04-06T01:47:35;100803.67;;;0.68;60.32
36254;BME280;22291;52.250;21.228;2023-04-06T01:50:02;100804.73;;;0.67;60.38
36254;BME280;22291;52.250;21.228;2023-04-06T01:52:30;100807.32;;;0.64;60.49
36254;BME280;22291;52.250;21.228;2023-04-06T01:54:56;100801.72;;;0.63;60.41
36254;BME280;22291;52.250;21.228;2023-04-06T01:57:22;100804.08;;;0.62;60.45
36254;BME280;22291;52.250;21.228;2023-04-06T01:59:48;100800.84;;;0.60;60.57
36254;BME280;22291;52.250;21.228;2023-04-06T02:02:15;100800.55;;;0.59;60.64
36254;BME280;22291;52.250;21.228;2023-04-06T02:04:42;100803.73;;;0.59;60.73
36254;BME280;22291;52.250;21.228;2023-04-06T02:07:08;100794.34;;;0.56;60.76
36254;BME280;22291;52.250;21.228;2023-04-06T02:09:36;100789.84;;;0.57;60.85
36254;BME280;22291;52.250;21.228;2023-04-06T02:12:02;100794.06;;;0.55;60.88
36254;BME280;22291;52.250;21.228;2023-04-06T02:14:29;100792.44;;;0.54;60.92
36254;BME280;22291;52.250;21.228;2023-04-06T02:16:55;100785.43;;;0.50;60.87
36254;BME280;22291;52.250;21.228;2023-04-06T02:19:23;100784.05;;;0.48;60.89
36254;BME280;22291;52.250;21.228;2023-04-06T02:21:49;100780.21;;;0.44;60.84
36254;BME280;22291;52.250;21.228;2023-04-06T02:24:18;100779.94;;;0.43;60.87
36254;BME280;22291;52.250;21.228;2023-04-06T02:26:44;100775.56;;;0.39;60.92
36254;BME280;22291;52.250;21.228;2023-04-06T02:29:10;100779.73;;;0.35;61.02
36254;BME280;22291;52.250;21.228;2023-04-06T02:31:36;100772.73;;;0.31;61.08
36254;BME280;22291;52.250;21.228;2023-04-06T02:34:02;100775.84;;;0.28;61.20
36254;BME280;22291;52.250;21.228;2023-04-06T02:36:29;100769.59;;;0.23;61.28
36254;BME280;22291;52.250;21.228;2023-04-06T02:38:56;100773.73;;;0.18;61.44
36254;BME280;22291;52.250;21.228;2023-04-06T02:41:22;100775.24;;;0.14;61.52
36254;BME280;22291;52.250;21.228;2023-04-06T02:43:48;100760.41;;;0.07;61.62
36254;BME280;22291;52.250;21.228;2023-04-06T02:46:15;100782.21;;;0.06;61.63
36254;BME280;22291;52.250;21.228;2023-04-06T02:48:41;100778.17;;;0.04;61.68
36254;BME280;22291;52.250;21.228;2023-04-06T02:51:07;100771.39;;;-0.02;61.87
36254;BME280;22291;52.250;21.228;2023-04-06T02:53:35;100772.06;;;-0.06;62.00
36254;BME280;22291;52.250;21.228;2023-04-06T02:56:01;100760.48;;;-0.12;62.14
36254;BME280;22291;52.250;21.228;2023-04-06T02:58:27;100777.91;;;-0.07;62.20
36254;BME280;22291;52.250;21.228;2023-04-06T03:00:54;100767.73;;;-0.19;62.37
36254;BME280;22291;52.250;21.228;2023-04-06T03:03:20;100772.69;;;-0.23;62.55
36254;BME280;22291;52.250;21.228;2023-04-06T03:05:47;100772.41;;;-0.24;62.67
36254;BME280;22291;52.250;21.228;2023-04-06T03:08:15;100767.18;;;-0.30;62.83
36254;BME280;22291;52.250;21.228;2023-04-06T03:10:41;100770.64;;;-0.30;62.83
36254;BME280;22291;52.250;21.228;2023-04-06T03:13:08;100771.39;;;-0.32;63.10
36254;BME280;22291;52.250;21.228;2023-04-06T03:15:35;100770.81;;;-0.34;63.29
36254;BME280;22291;52.250;21.228;2023-04-06T03:18:01;100769.92;;;-0.37;63.39
36254;BME280;22291;52.250;21.228;2023-04-06T03:20:28;100770.67;;;-0.39;63.81
36254;BME280;22291;52.250;21.228;2023-04-06T03:22:54;100770.67;;;-0.39;63.81
36254;BME280;22291;52.250;21.228;2023-04-06T03:25:21;100773.55;;;-0.41;63.80
36254;BME280;22291;52.250;21.228;2023-04-06T03:27:48;100771.91;;;-0.42;63.98
36254;BME280;22291;52.250;21.228;2023-04-06T03:30:16;100772.44;;;-0.42;64.12
36254;BME280;22291;52.250;21.228;2023-04-06T03:32:44;100769.48;;;-0.43;64.23
36254;BME280;22291;52.250;21.228;2023-04-06T03:35:11;100769.48;;;-0.43;64.45
36254;BME280;22291;52.250;21.228;2023-04-06T03:37:37;100772.94;;;-0.43;64.57
36254;BME280;22291;52.250;21.228;2023-04-06T03:40:05;100777.76;;;-0.42;64.77
36254;BME280;22291;52.250;21.228;2023-04-06T03:42:31;100778.86;;;-0.41;64.83
36254;BME280;22291;52.250;21.228;2023-04-06T03:44:59;100772.80;;;-0.39;65.04
36254;BME280;22291;52.250;21.228;2023-04-06T03:47:25;100778.92;;;-0.38;65.09
36254;BME280;22291;52.250;21.228;2023-04-06T03:49:52;100772.80;;;-0.39;65.13
36254;BME280;22291;52.250;21.228;2023-04-06T03:52:18;100788.50;;;-0.28;65.21
36254;BME280;22291;52.250;21.228;2023-04-06T03:54:45;100775.59;;;-0.33;65.36
36254;BME280;22291;52.250;21.228;2023-04-06T03:57:12;100776.70;;;-0.32;65.47
36254;BME280;22291;52.250;21.228;2023-04-06T03:59:39;100775.38;;;-0.32;65.38
36254;BME280;22291;52.250;21.228;2023-04-06T04:02:05;100767.62;;;-0.33;65.42
36254;BME280;22291;52.250;21.228;2023-04-06T04:04:33;100764.22;;;-0.31;65.56
36254;BME280;22291;52.250;21.228;2023-04-06T04:07:00;100763.19;;;-0.30;65.58
36254;BME280;22291;52.250;21.228;2023-04-06T04:09:26;100766.13;;;-0.29;65.64
36254;BME280;22291;52.250;21.228;2023-04-06T04:11:52;100766.13;;;-0.29;65.64
36254;BME280;22291;52.250;21.228;2023-04-06T04:14:20;100766.96;;;-0.29;65.72
36254;BME280;22291;52.250;21.228;2023-04-06T04:16:47;100761.42;;;-0.27;65.69
36254;BME280;22291;52.250;21.228;2023-04-06T04:19:13;100760.31;;;-0.29;65.80
36254;BME280;22291;52.250;21.228;2023-04-06T04:21:44;100761.42;;;-0.27;65.79
36254;BME280;22291;52.250;21.228;2023-04-06T04:24:12;100758.51;;;-0.26;65.82
36254;BME280;22291;52.250;21.228;2023-04-06T04:26:40;100754.02;;;-0.25;65.94
36254;BME280;22291;52.250;21.228;2023-04-06T04:29:07;100763.91;;;-0.23;65.97
36254;BME280;22291;52.250;21.228;2023-04-06T04:31:34;100767.14;;;-0.21;66.06
36254;BME280;22291;52.250;21.228;2023-04-06T04:34:00;100755.18;;;-0.21;66.03
36254;BME280;22291;52.250;21.228;2023-04-06T04:36:27;100758.42;;;-0.19;66.09
36254;BME280;22291;52.250;21.228;2023-04-06T04:38:53;100759.30;;;-0.16;66.14
36254;BME280;22291;52.250;21.228;2023-04-06T04:41:22;100744.15;;;-0.15;66.11
36254;BME280;22291;52.250;21.228;2023-04-06T04:43:48;100746.09;;;-0.13;66.13
36254;BME280;22291;52.250;21.228;2023-04-06T04:46:15;100743.78;;;-0.10;66.12
36254;BME280;22291;52.250;21.228;2023-04-06T04:48:41;100745.47;;;-0.06;66.15
36254;BME280;22291;52.250;21.228;2023-04-06T04:51:09;100746.40;;;-0.01;66.08
36254;BME280;22291;52.250;21.228;2023-04-06T04:53:35;100738.95;;;-0.01;65.97
36254;BME280;22291;52.250;21.228;2023-04-06T04:56:01;100739.08;;;0.04;66.11
36254;BME280;22291;52.250;21.228;2023-04-06T04:58:28;100740.76;;;0.08;66.09
36254;BME280;22291;52.250;21.228;2023-04-06T05:00:55;100741.91;;;0.12;65.98
36254;BME280;22291;52.250;21.228;2023-04-06T05:03:24;100739.02;;;0.13;65.98
36254;BME280;22291;52.250;21.228;2023-04-06T05:05:51;100743.97;;;0.19;66.07
36254;BME280;22291;52.250;21.228;2023-04-06T05:08:18;100742.99;;;0.23;65.98
36254;BME280;22291;52.250;21.228;2023-04-06T05:10:46;100753.00;;;0.30;65.96
36254;BME280;22291;52.250;21.228;2023-04-06T05:13:14;100750.16;;;0.34;65.95
36254;BME280;22291;52.250;21.228;2023-04-06T05:15:41;100749.03;;;0.42;65.90
36254;BME280;22291;52.250;21.228;2023-04-06T05:18:08;100748.62;;;0.47;65.85
36254;BME280;22291;52.250;21.228;2023-04-06T05:20:35;100746.38;;;0.53;65.73
36254;BME280;22291;52.250;21.228;2023-04-06T05:23:03;100751.94;;;0.64;65.76
36254;BME280;22291;52.250;21.228;2023-04-06T05:25:30;100751.06;;;0.72;65.77
36254;BME280;22291;52.250;21.228;2023-04-06T05:27:59;100741.39;;;0.81;65.56
36254;BME280;22291;52.250;21.228;2023-04-06T05:30:26;100745.19;;;0.97;65.21
36254;BME280;22291;52.250;21.228;2023-04-06T05:32:54;100745.19;;;0.97;65.21
36254;BME280;22291;52.250;21.228;2023-04-06T05:35:21;100733.08;;;1.03;64.87
36254;BME280;22291;52.250;21.228;2023-04-06T05:37:49;100740.25;;;1.15;64.49
36254;BME280;22291;52.250;21.228;2023-04-06T05:40:16;100740.25;;;1.15;64.49
36254;BME280;22291;52.250;21.228;2023-04-06T05:42:42;100740.03;;;1.30;64.65
36254;BME280;22291;52.250;21.228;2023-04-06T05:45:11;100740.03;;;1.30;64.65
36254;BME280;22291;52.250;21.228;2023-04-06T05:47:43;100739.47;;;1.43;63.98
36254;BME280;22291;52.250;21.228;2023-04-06T05:50:11;100739.47;;;1.43;63.98
36254;BME280;22291;52.250;21.228;2023-04-06T05:52:41;100735.06;;;1.48;64.10
36254;BME280;22291;52.250;21.228;2023-04-06T05:55:09;100727.72;;;1.56;63.96
36254;BME280;22291;52.250;21.228;2023-04-06T05:57:37;100726.25;;;1.62;63.82
36254;BME280;22291;52.250;21.228;2023-04-06T06:00:06;100731.44;;;1.69;63.78
36254;BME280;22291;52.250;21.228;2023-04-06T06:02:34;100722.23;;;1.77;63.67
36254;BME280;22291;52.250;21.228;2023-04-06T06:05:01;100729.84;;;1.85;63.76
36254;BME280;22291;52.250;21.228;2023-04-06T06:07:28;100728.66;;;1.93;63.41
36254;BME280;22291;52.250;21.228;2023-04-06T06:09:58;100725.22;;;1.95;63.14
36254;BME280;22291;52.250;21.228;2023-04-06T06:12:24;100726.88;;;1.98;63.04
36254;BME280;22291;52.250;21.228;2023-04-06T06:14:51;100726.44;;;2.04;62.70
36254;BME280;22291;52.250;21.228;2023-04-06T06:17:17;100712.85;;;2.05;62.96
36254;BME280;22291;52.250;21.228;2023-04-06T06:19:43;100716.75;;;2.15;62.84
36254;BME280;22291;52.250;21.228;2023-04-06T06:22:09;100717.10;;;2.21;62.74
36254;BME280;22291;52.250;21.228;2023-04-06T06:24:36;100717.50;;;2.30;62.85
36254;BME280;22291;52.250;21.228;2023-04-06T06:27:02;100720.33;;;2.40;62.58
36254;BME280;22291;52.250;21.228;2023-04-06T06:29:29;100725.48;;;2.44;62.31
36254;BME280;22291;52.250;21.228;2023-04-06T06:31:55;100724.95;;;2.45;61.95
36254;BME280;22291;52.250;21.228;2023-04-06T06:34:21;100727.00;;;2.40;61.80
36254;BME280;22291;52.250;21.228;2023-04-06T06:36:47;100722.68;;;2.36;61.76
36254;BME280;22291;52.250;21.228;2023-04-06T06:39:14;100709.62;;;2.37;61.85
36254;BME280;22291;52.250;21.228;2023-04-06T06:41:40;100720.92;;;2.42;62.09
36254;BME280;22291;52.250;21.228;2023-04-06T06:44:07;100712.47;;;2.50;62.19
36254;BME280;22291;52.250;21.228;2023-04-06T06:46:33;100716.60;;;2.58;62.42
36254;BME280;22291;52.250;21.228;2023-04-06T06:48:59;100709.83;;;2.70;62.44
36254;BME280;22291;52.250;21.228;2023-04-06T06:51:26;100711.02;;;2.79;62.27
36254;BME280;22291;52.250;21.228;2023-04-06T06:53:52;100711.98;;;2.92;62.25
36254;BME280;22291;52.250;21.228;2023-04-06T06:56:18;100711.45;;;3.12;62.47
36254;BME280;22291;52.250;21.228;2023-04-06T06:58:44;100709.00;;;3.30;62.64
36254;BME280;22291;52.250;21.228;2023-04-06T07:01:11;100707.05;;;3.50;62.34
36254;BME280;22291;52.250;21.228;2023-04-06T07:03:38;100707.95;;;3.59;61.83
36254;BME280;22291;52.250;21.228;2023-04-06T07:06:06;100713.41;;;3.69;61.60
36254;BME280;22291;52.250;21.228;2023-04-06T07:08:32;100697.09;;;3.70;61.02
36254;BME280;22291;52.250;21.228;2023-04-06T07:11:00;100707.80;;;3.70;60.70
36254;BME280;22291;52.250;21.228;2023-04-06T07:13:26;100694.87;;;3.62;60.14
36254;BME280;22291;52.250;21.228;2023-04-06T07:15:54;100705.27;;;3.59;60.39
36254;BME280;22291;52.250;21.228;2023-04-06T07:18:21;100697.80;;;3.61;60.46
36254;BME280;22291;52.250;21.228;2023-04-06T07:20:49;100697.78;;;3.58;60.27
36254;BME280;22291;52.250;21.228;2023-04-06T07:23:16;100697.20;;;3.53;60.26
36254;BME280;22291;52.250;21.228;2023-04-06T07:25:42;100704.17;;;3.54;60.57
36254;BME280;22291;52.250;21.228;2023-04-06T07:28:09;100708.79;;;3.62;60.66
36254;BME280;22291;52.250;21.228;2023-04-06T07:30:37;100707.75;;;3.65;60.65
36254;BME280;22291;52.250;21.228;2023-04-06T07:33:05;100704.87;;;3.72;60.54
36254;BME280;22291;52.250;21.228;2023-04-06T07:35:32;100696.61;;;3.76;60.56
36254;BME280;22291;52.250;21.228;2023-04-06T07:38:00;100698.52;;;3.78;60.03
36254;BME280;22291;52.250;21.228;2023-04-06T07:40:43;100697.98;;;3.79;59.95
36254;BME280;22291;52.250;21.228;2023-04-06T07:43:10;100695.86;;;3.81;60.12
36254;BME280;22291;52.250;21.228;2023-04-06T07:45:36;100703.13;;;3.85;59.99
36254;BME280;22291;52.250;21.228;2023-04-06T07:48:03;100700.95;;;3.82;60.16
36254;BME280;22291;52.250;21.228;2023-04-06T07:50:30;100701.80;;;3.85;60.02
36254;BME280;22291;52.250;21.228;2023-04-06T07:52:56;100695.11;;;3.85;60.38
36254;BME280;22291;52.250;21.228;2023-04-06T07:55:23;100693.47;;;3.82;60.85
36254;BME280;22291;52.250;21.228;2023-04-06T07:57:50;100699.27;;;3.73;61.23
36254;BME280;22291;52.250;21.228;2023-04-06T08:00:18;100698.48;;;3.73;62.11
36254;BME280;22291;52.250;21.228;2023-04-06T08:02:45;100690.70;;;3.71;62.31
36254;BME280;22291;52.250;21.228;2023-04-06T08:05:11;100689.31;;;3.66;62.02
36254;BME280;22291;52.250;21.228;2023-04-06T08:07:38;100688.52;;;3.68;62.61
36254;BME280;22291;52.250;21.228;2023-04-06T08:10:06;100688.57;;;3.73;62.86
36254;BME280;22291;52.250;21.228;2023-04-06T08:12:33;100687.23;;;3.73;62.93
36254;BME280;22291;52.250;21.228;2023-04-06T08:14:59;100689.37;;;3.74;63.23
36254;BME280;22291;52.250;21.228;2023-04-06T08:17:26;100697.94;;;3.73;63.24
36254;BME280;22291;52.250;21.228;2023-04-06T08:19:54;100690.07;;;3.64;63.03
36254;BME280;22291;52.250;21.228;2023-04-06T08:22:20;100683.88;;;3.59;63.21
36254;BME280;22291;52.250;21.228;2023-04-06T08:24:47;100682.23;;;3.55;63.37
36254;BME280;22291;52.250;21.228;2023-04-06T08:27:13;100679.02;;;3.53;63.43
36254;BME280;22291;52.250;21.228;2023-04-06T08:29:40;100680.56;;;3.49;63.57
36254;BME280;22291;52.250;21.228;2023-04-06T08:32:07;100683.48;;;3.47;63.37
36254;BME280;22291;52.250;21.228;2023-04-06T08:34:33;100680.45;;;3.39;63.28
36254;BME280;22291;52.250;21.228;2023-04-06T08:37:00;100682.52;;;3.31;63.51
36254;BME280;22291;52.250;21.228;2023-04-06T08:39:27;100681.17;;;3.29;64.10
36254;BME280;22291;52.250;21.228;2023-04-06T08:41:54;100678.70;;;3.25;64.04
36254;BME280;22291;52.250;21.228;2023-04-06T08:44:27;100680.04;;;3.25;64.29
36254;BME280;22291;52.250;21.228;2023-04-06T08:49:37;100668.17;;;3.40;64.97
36254;BME280;22291;52.250;21.228;2023-04-06T08:52:07;100671.23;;;3.51;65.50
36254;BME280;22291;52.250;21.228;2023-04-06T08:54:34;100672.08;;;3.54;65.62
36254;BME280;22291;52.250;21.228;2023-04-06T08:57:02;100671.54;;;3.55;65.77
36254;BME280;22291;52.250;21.228;2023-04-06T08:59:29;100674.77;;;3.57;66.05
36254;BME280;22291;52.250;21.228;2023-04-06T09:01:56;100674.70;;;3.49;65.53
36254;BME280;22291;52.250;21.228;2023-04-06T09:04:24;100656.98;;;3.43;65.94
36254;BME280;22291;52.250;21.228;2023-04-06T09:06:53;100656.17;;;3.43;66.40
36254;BME280;22291;52.250;21.228;2023-04-06T09:09:19;100650.83;;;3.43;66.62
36254;BME280;22291;52.250;21.228;2023-04-06T09:11:48;100639.84;;;3.42;66.49
36254;BME280;22291;52.250;21.228;2023-04-06T09:14:17;100641.47;;;3.43;66.34
36254;BME280;22291;52.250;21.228;2023-04-06T09:16:45;100638.20;;;3.35;65.91
36254;BME280;22291;52.250;21.228;2023-04-06T09:19:12;100637.86;;;3.32;66.02
36254;BME280;22291;52.250;21.228;2023-04-06T09:21:39;100635.19;;;3.32;66.50
36254;BME280;22291;52.250;21.228;2023-04-06T09:24:07;100633.61;;;3.33;66.51
36254;BME280;22291;52.250;21.228;2023-04-06T09:26:45;100631.02;;;3.16;66.37
36254;BME280;22291;52.250;21.228;2023-04-06T09:29:24;100626.84;;;3.01;66.84
36254;BME280;22291;52.250;21.228;2023-04-06T09:31:52;100635.33;;;2.93;67.48
36254;BME280;22291;52.250;21.228;2023-04-06T09:34:22;100629.89;;;2.88;68.13
36254;BME280;22291;52.250;21.228;2023-04-06T09:36:51;100622.16;;;2.86;68.38
36254;BME280;22291;52.250;21.228;2023-04-06T09:39:22;100624.24;;;2.84;69.18
36254;BME280;22291;52.250;21.228;2023-04-06T09:41:51;100619.38;;;2.78;69.21
36254;BME280;22291;52.250;21.228;2023-04-06T09:44:18;100613.48;;;2.76;69.66
36254;BME280;22291;52.250;21.228;2023-04-06T09:46:46;100610.02;;;2.78;70.03
36254;BME280;22291;52.250;21.228;2023-04-06T09:49:13;100605.47;;;2.76;70.24
36254;BME280;22291;52.250;21.228;2023-04-06T09:51:46;100602.56;;;2.80;70.34
36254;BME280;22291;52.250;21.228;2023-04-06T09:54:19;100603.41;;;2.84;70.09
36254;BME280;22291;52.250;21.228;2023-04-06T09:59:36;100595.52;;;2.72;70.19
36254;BME280;22291;52.250;21.228;2023-04-06T10:02:05;100597.33;;;2.66;70.44
36254;BME280;22291;52.250;21.228;2023-04-06T10:07:12;100587.14;;;2.63;71.02
36254;BME280;22291;52.250;21.228;2023-04-06T10:09:43;100588.23;;;2.65;71.27
36254;BME280;22291;52.250;21.228;2023-04-06T10:12:12;100591.19;;;2.66;71.17
36254;BME280;22291;52.250;21.228;2023-04-06T10:14:39;100590.66;;;2.66;71.71
36254;BME280;22291;52.250;21.228;2023-04-06T10:17:06;100589.80;;;2.63;71.57
36254;BME280;22291;52.250;21.228;2023-04-06T10:19:46;100594.30;;;2.60;71.84
36254;BME280;22291;52.250;21.228;2023-04-06T10:22:26;100596.42;;;2.58;71.97
36254;BME280;22291;52.250;21.228;2023-04-06T10:24:58;100592.91;;;2.55;72.00
36254;BME280;22291;52.250;21.228;2023-04-06T10:27:28;100593.98;;;2.54;72.34
36254;BME280;22291;52.250;21.228;2023-04-06T10:30:01;100599.34;;;2.56;72.45
36254;BME280;22291;52.250;21.228;2023-04-06T10:32:36;100591.31;;;2.54;72.37
36254;BME280;22291;52.250;21.228;2023-04-06T10:35:11;100584.65;;;2.56;72.70
36254;BME280;22291;52.250;21.228;2023-04-06T10:37:53;100578.51;;;2.56;72.74
36254;BME280;22291;52.250;21.228;2023-04-06T10:40:23;100583.09;;;2.60;73.14
36254;BME280;22291;52.250;21.228;2023-04-06T10:42:53;100578.09;;;2.67;73.39
36254;BME280;22291;52.250;21.228;2023-04-06T10:45:25;100569.84;;;2.68;73.41
36254;BME280;22291;52.250;21.228;2023-04-06T10:47:53;100569.55;;;2.67;73.11
36254;BME280;22291;52.250;21.228;2023-04-06T10:50:22;100565.83;;;2.68;73.13
36254;BME280;22291;52.250;21.228;2023-04-06T10:53:00;100568.19;;;2.65;73.20
36254;BME280;22291;52.250;21.228;2023-04-06T10:55:29;100569.17;;;2.58;73.07
36254;BME280;22291;52.250;21.228;2023-04-06T10:57:56;100563.04;;;2.58;73.31
36254;BME280;22291;52.250;21.228;2023-04-06T11:00:23;100563.58;;;2.57;73.37
36254;BME280;22291;52.250;21.228;2023-04-06T11:02:50;100561.45;;;2.59;73.61
36254;BME280;22291;52.250;21.228;2023-04-06T11:05:16;100555.83;;;2.58;73.52
36254;BME280;22291;52.250;21.228;2023-04-06T11:07:44;100553.16;;;2.58;73.72
36254;BME280;22291;52.250;21.228;2023-04-06T11:10:10;100550.48;;;2.58;73.80
36254;BME280;22291;52.250;21.228;2023-04-06T11:12:37;100555.83;;;2.58;73.83
36254;BME280;22291;52.250;21.228;2023-04-06T11:15:04;100558.80;;;2.62;73.86
36254;BME280;22291;52.250;21.228;2023-04-06T11:17:33;100549.20;;;2.64;73.89
36254;BME280;22291;52.250;21.228;2023-04-06T11:20:03;100541.73;;;2.63;73.77
36254;BME280;22291;52.250;21.228;2023-04-06T11:22:31;100545.02;;;2.70;74.02
36254;BME280;22291;52.250;21.228;2023-04-06T11:25:06;100534.33;;;2.70;74.08
36254;BME280;22291;52.250;21.228;2023-04-06T11:27:34;100542.39;;;2.75;74.15
36254;BME280;22291;52.250;21.228;2023-04-06T11:30:02;100537.09;;;2.78;74.25
36254;BME280;22291;52.250;21.228;2023-04-06T11:32:29;100547.30;;;2.84;74.29
36254;BME280;22291;52.250;21.228;2023-04-06T11:34:57;100545.17;;;2.86;74.12
36254;BME280;22291;52.250;21.228;2023-04-06T11:37:26;100535.87;;;2.88;74.04
36254;BME280;22291;52.250;21.228;2023-04-06T11:39:55;100527.06;;;2.90;73.97
36254;BME280;22291;52.250;21.228;2023-04-06T11:42:28;100524.64;;;2.89;73.71
36254;BME280;22291;52.250;21.228;2023-04-06T11:44:57;100521.77;;;2.93;73.88
36254;BME280;22291;52.250;21.228;2023-04-06T11:47:35;100511.87;;;2.96;73.65
36254;BME280;22291;52.250;21.228;2023-04-06T11:50:11;100510.58;;;2.98;73.57
36254;BME280;22291;52.250;21.228;2023-04-06T11:52:40;100511.13;;;3.01;73.60
36254;BME280;22291;52.250;21.228;2023-04-06T11:55:13;100497.80;;;3.03;73.60
36254;BME280;22291;52.250;21.228;2023-04-06T11:57:43;100503.45;;;3.07;73.68
36254;BME280;22291;52.250;21.228;2023-04-06T12:00:12;100499.19;;;3.08;73.42
36254;BME280;22291;52.250;21.228;2023-04-06T12:02:45;100489.84;;;3.11;73.29
36254;BME280;22291;52.250;21.228;2023-04-06T12:05:14;100492.52;;;3.11;73.16
36254;BME280;22291;52.250;21.228;2023-04-06T12:07:40;100487.97;;;3.11;73.11
36254;BME280;22291;52.250;21.228;2023-04-06T12:10:08;100479.15;;;3.11;73.01
36254;BME280;22291;52.250;21.228;2023-04-06T12:12:35;100485.05;;;3.13;73.11
36254;BME280;22291;52.250;21.228;2023-04-06T12:15:01;100478.11;;;3.14;72.97
36254;BME280;22291;52.250;21.228;2023-04-06T12:17:28;100475.94;;;3.11;72.71
36254;BME280;22291;52.250;21.228;2023-04-06T12:19:54;100484.20;;;3.10;72.86
36254;BME280;22291;52.250;21.228;2023-04-06T12:22:20;100484.20;;;3.10;72.74
36254;BME280;22291;52.250;21.228;2023-04-06T12:24:47;100487.41;;;3.07;72.72
36254;BME280;22291;52.250;21.228;2023-04-06T12:27:13;100483.16;;;3.08;73.21
36254;BME280;22291;52.250;21.228;2023-04-06T12:29:41;100480.23;;;3.12;73.29
36254;BME280;22291;52.250;21.228;2023-04-06T12:32:08;100472.22;;;3.15;73.53
36254;BME280;22291;52.250;21.228;2023-04-06T12:34:38;100477.10;;;3.21;73.09
36254;BME280;22291;52.250;21.228;2023-04-06T12:37:04;100466.41;;;3.23;73.12
36254;BME280;22291;52.250;21.228;2023-04-06T12:39:30;100474.69;;;3.22;72.72
36254;BME280;22291;52.250;21.228;2023-04-06T12:41:57;100477.11;;;3.23;72.88
36254;BME280;22291;52.250;21.228;2023-04-06T12:44:23;100473.89;;;3.21;72.79
36254;BME280;22291;52.250;21.228;2023-04-06T12:46:49;100474.72;;;3.24;72.71
36254;BME280;22291;52.250;21.228;2023-04-06T12:49:16;100480.03;;;3.22;72.62
36254;BME280;22291;52.250;21.228;2023-04-06T12:51:44;100458.10;;;3.20;72.61
36254;BME280;22291;52.250;21.228;2023-04-06T12:54:11;100474.67;;;3.19;72.65
36254;BME280;22291;52.250;21.228;2023-04-06T12:56:37;100466.66;;;3.19;72.79
36254;BME280;22291;52.250;21.228;2023-04-06T12:59:03;100458.09;;;3.17;73.07